createdAt,value
2018-08-27T00:01:58.954Z,39.20
2018-08-27T00:04:27.173Z,39.60
2018-08-27T00:06:55.423Z,39.50
2018-08-27T00:09:23.636Z,39.70
2018-08-27T00:11:51.854Z,39.50
2018-08-27T00:14:20.119Z,39.30
2018-08-27T00:16:48.323Z,39.90
2018-08-27T00:19:16.578Z,39.60
2018-08-27T00:21:44.822Z,39.90
2018-08-27T00:24:13.032Z,39.60
2018-08-27T00:26:41.275Z,39.30
2018-08-27T00:29:09.511Z,39.90
2018-08-27T00:31:37.759Z,39.40
2018-08-27T00:34:06.003Z,39.50
2018-08-27T00:36:34.254Z,40.10
2018-08-27T00:39:03.271Z,40.10
2018-08-27T00:41:31.521Z,40.00
2018-08-27T00:44:00.530Z,39.60
2018-08-27T00:46:28.782Z,39.60
2018-08-27T00:48:57.025Z,39.70
2018-08-27T00:51:25.244Z,40.10
2018-08-27T00:53:54.215Z,39.80
2018-08-27T00:56:22.447Z,39.80
2018-08-27T00:58:50.694Z,39.70
2018-08-27T01:01:19.714Z,39.70
2018-08-27T01:03:47.954Z,39.70
2018-08-27T01:06:16.186Z,39.80
2018-08-27T01:08:44.398Z,39.90
2018-08-27T01:11:12.662Z,39.90
2018-08-27T01:13:40.858Z,40.60
2018-08-27T01:16:09.883Z,39.90
2018-08-27T01:18:38.096Z,39.80
2018-08-27T01:21:06.308Z,39.90
2018-08-27T01:23:35.284Z,40.40
2018-08-27T01:26:03.528Z,40.50
2018-08-27T01:28:31.774Z,40.60
2018-08-27T01:31:00.794Z,40.70
2018-08-27T01:33:29.047Z,40.60
2018-08-27T01:35:58.048Z,40.90
2018-08-27T01:38:26.292Z,40.90
2018-08-27T01:40:54.517Z,40.50
2018-08-27T01:43:22.771Z,40.60
2018-08-27T01:45:51.793Z,40.40
2018-08-27T01:48:19.986Z,40.40
2018-08-27T01:50:48.203Z,41.00
2018-08-27T01:53:17.175Z,40.80
2018-08-27T01:55:45.398Z,40.80
2018-08-27T01:58:13.645Z,40.50
2018-08-27T02:00:42.663Z,40.90
2018-08-27T02:03:10.901Z,40.90
2018-08-27T02:05:39.160Z,40.80
2018-08-27T02:08:08.161Z,40.70
2018-08-27T02:10:36.373Z,40.70
2018-08-27T02:13:04.586Z,40.80
2018-08-27T02:15:32.807Z,41.10
2018-08-27T02:18:01.780Z,40.80
2018-08-27T02:20:30.045Z,40.80
2018-08-27T02:22:59.061Z,40.90
2018-08-27T02:25:27.314Z,40.90
2018-08-27T02:27:55.502Z,40.80
2018-08-27T02:30:23.766Z,41.10
2018-08-27T02:32:51.972Z,41.20
2018-08-27T02:35:20.196Z,41.20
2018-08-27T02:37:48.426Z,41.00
2018-08-27T02:40:16.643Z,41.30
2018-08-27T02:42:44.877Z,41.20
2018-08-27T02:45:13.080Z,42.00
2018-08-27T02:47:41.353Z,41.40
2018-08-27T02:50:10.352Z,41.90
2018-08-27T02:52:38.567Z,41.90
2018-08-27T02:55:06.776Z,43.20
2018-08-27T02:57:35.801Z,43.40
2018-08-27T03:00:04.056Z,42.60
2018-08-27T03:02:32.312Z,42.30
2018-08-27T03:05:00.513Z,49.20
2018-08-27T03:07:29.547Z,46.10
2018-08-27T03:09:57.799Z,46.10
2018-08-27T03:12:26.069Z,44.70
2018-08-27T03:14:55.073Z,45.70
2018-08-27T03:17:23.323Z,45.60
2018-08-27T03:19:51.565Z,46.60
2018-08-27T03:22:20.132Z,49.50
2018-08-27T03:24:48.415Z,47.70
2018-08-27T03:27:17.339Z,51.20
2018-08-27T03:29:45.555Z,51.10
2018-08-27T03:32:13.785Z,51.40
2018-08-27T03:34:42.023Z,51.10
2018-08-27T03:37:10.235Z,51.50
2018-08-27T03:39:38.438Z,54.30
2018-08-27T03:42:07.425Z,52.00
2018-08-27T03:44:36.435Z,52.40
2018-08-27T03:47:05.453Z,52.10
2018-08-27T03:49:33.698Z,52.20
2018-08-27T03:52:02.715Z,52.80
2018-08-27T03:54:30.911Z,52.90
2018-08-27T03:56:59.172Z,53.20
2018-08-27T03:59:27.379Z,49.50
2018-08-27T04:01:55.606Z,48.70
2018-08-27T04:04:23.858Z,52.50
2018-08-27T04:06:52.110Z,54.50
2018-08-27T04:09:20.306Z,54.60
2018-08-27T04:11:48.568Z,53.20
2018-08-27T04:14:16.773Z,49.70
2018-08-27T04:16:45.766Z,48.70
2018-08-27T04:19:14.799Z,49.60
2018-08-27T04:21:43.044Z,49.90
2018-08-27T04:24:12.054Z,50.80
2018-08-27T04:26:40.315Z,50.70
2018-08-27T04:29:08.552Z,53.40
2018-08-27T04:31:36.801Z,49.30
2018-08-27T04:34:05.050Z,52.10
2018-08-27T04:36:34.024Z,47.60
2018-08-27T04:39:02.252Z,47.60
2018-08-27T04:41:30.464Z,51.90
2018-08-27T04:43:58.676Z,48.50
2018-08-27T04:46:27.697Z,55.50
2018-08-27T04:48:55.940Z,55.60
2018-08-27T04:51:24.966Z,55.90
2018-08-27T04:53:53.169Z,56.00
2018-08-27T04:56:21.439Z,55.70
2018-08-27T04:58:49.650Z,55.80
2018-08-27T05:01:17.868Z,54.30
2018-08-27T05:03:46.153Z,55.80
2018-08-27T05:06:14.392Z,54.40
2018-08-27T05:08:43.415Z,51.20
2018-08-27T05:11:11.652Z,51.20
2018-08-27T05:13:39.878Z,55.10
2018-08-27T05:16:08.129Z,52.00
2018-08-27T05:18:37.107Z,52.80
2018-08-27T05:21:06.125Z,51.40
2018-08-27T05:23:34.338Z,51.40
2018-08-27T05:26:02.553Z,53.70
2018-08-27T05:28:31.580Z,52.70
2018-08-27T05:30:59.941Z,52.60
2018-08-27T05:33:28.097Z,53.40
2018-08-27T05:35:56.293Z,53.80
2018-08-27T05:38:24.535Z,53.00
2018-08-27T05:40:52.760Z,52.50
2018-08-27T05:43:21.020Z,53.10
2018-08-27T05:45:50.033Z,52.60
2018-08-27T05:48:18.255Z,52.60
2018-08-27T05:50:46.507Z,51.50
2018-08-27T05:53:14.729Z,54.30
2018-08-27T05:55:43.764Z,51.30
2018-08-27T05:58:12.024Z,51.30
2018-08-27T06:00:40.272Z,53.80
2018-08-27T06:03:08.527Z,53.10
2018-08-27T06:05:36.764Z,51.80
2018-08-27T06:08:05.022Z,50.90
2018-08-27T06:10:34.035Z,53.60
2018-08-27T06:13:02.282Z,53.50
2018-08-27T06:15:31.247Z,53.70
2018-08-27T06:17:59.471Z,53.70
2018-08-27T06:20:27.726Z,53.40
2018-08-27T06:22:56.703Z,53.30
2018-08-27T06:25:24.895Z,53.10
2018-08-27T06:27:53.932Z,53.20
2018-08-27T06:30:22.167Z,53.10
2018-08-27T06:32:51.188Z,52.30
2018-08-27T06:35:19.378Z,52.30
2018-08-27T06:37:47.723Z,51.80
2018-08-27T06:40:15.864Z,51.50
2018-08-27T06:42:44.126Z,52.50
2018-08-27T06:45:12.339Z,51.40
2018-08-27T06:47:41.366Z,51.10
2018-08-27T06:50:09.610Z,51.00
2018-08-27T06:52:37.859Z,50.90
2018-08-27T06:55:06.115Z,50.80
2018-08-27T06:57:34.337Z,50.30
2018-08-27T07:00:03.359Z,50.10
2018-08-27T07:02:32.336Z,49.50
2018-08-27T07:05:01.320Z,49.60
2018-08-27T07:07:30.314Z,49.30
2018-08-27T07:09:58.512Z,49.30
2018-08-27T07:12:26.721Z,49.40
2018-08-27T07:14:54.991Z,48.20
2018-08-27T07:17:23.228Z,46.80
2018-08-27T07:19:52.226Z,47.50
2018-08-27T07:22:20.437Z,47.50
2018-08-27T07:24:48.648Z,47.30
2018-08-27T07:27:16.963Z,47.00
2018-08-27T07:29:45.158Z,47.30
2018-08-27T07:32:13.736Z,47.50
2018-08-27T07:34:41.978Z,45.70
2018-08-27T07:37:10.950Z,44.80
2018-08-27T07:39:39.218Z,44.80
2018-08-27T07:42:07.460Z,44.80
2018-08-27T07:44:35.722Z,45.10
2018-08-27T07:47:03.966Z,45.40
2018-08-27T07:49:32.234Z,44.20
2018-08-27T07:52:00.442Z,45.00
2018-08-27T07:54:29.469Z,44.20
2018-08-27T07:56:57.676Z,44.20
2018-08-27T07:59:25.899Z,43.30
2018-08-27T08:01:54.104Z,43.40
2018-08-27T08:04:22.326Z,42.60
2018-08-27T08:06:51.337Z,42.20
2018-08-27T08:09:20.325Z,42.90
2018-08-27T08:11:49.311Z,42.60
2018-08-27T08:14:17.558Z,42.60
2018-08-27T08:16:45.804Z,41.60
2018-08-27T08:19:14.064Z,42.20
2018-08-27T08:21:42.259Z,42.00
2018-08-27T08:24:10.503Z,42.70
2018-08-27T08:26:39.479Z,41.80
2018-08-27T08:29:08.511Z,41.50
2018-08-27T08:31:36.792Z,41.40
2018-08-27T08:34:05.062Z,42.10
2018-08-27T08:36:33.278Z,41.30
2018-08-27T08:39:02.366Z,41.70
2018-08-27T08:41:30.573Z,41.60
2018-08-27T08:43:58.849Z,42.30
2018-08-27T08:46:27.883Z,39.70
2018-08-27T08:48:56.115Z,41.10
2018-08-27T08:51:24.325Z,40.60
2018-08-27T08:53:52.561Z,41.70
2018-08-27T08:56:20.784Z,41.50
2018-08-27T08:58:49.045Z,40.10
2018-08-27T09:01:18.155Z,41.50
2018-08-27T09:03:46.351Z,41.50
2018-08-27T09:06:14.594Z,41.80
2018-08-27T09:08:42.820Z,42.90
2018-08-27T09:11:11.031Z,40.40
2018-08-27T09:13:39.256Z,41.70
2018-08-27T09:16:07.483Z,37.20
2018-08-27T09:18:35.785Z,38.80
2018-08-27T09:21:04.812Z,36.00
2018-08-27T09:23:33.070Z,36.00
2018-08-27T09:26:02.255Z,38.90
2018-08-27T09:28:31.294Z,37.20
2018-08-27T09:30:59.489Z,37.20
2018-08-27T09:33:27.719Z,36.40
2018-08-27T09:35:55.990Z,38.50
2018-08-27T09:38:24.247Z,36.00
2018-08-27T09:40:53.250Z,40.30
2018-08-27T09:43:21.512Z,40.30
2018-08-27T09:45:49.773Z,39.70
2018-08-27T09:48:18.032Z,37.30
2018-08-27T09:50:46.240Z,38.50
2018-08-27T09:53:15.355Z,37.60
2018-08-27T09:55:43.540Z,37.60
2018-08-27T09:58:11.822Z,34.60
2018-08-27T10:00:40.088Z,33.50
2018-08-27T10:03:08.314Z,38.90
2018-08-27T10:05:36.544Z,33.40
2018-08-27T10:08:04.760Z,33.40
2018-08-27T10:10:33.024Z,33.80
2018-08-27T10:13:01.277Z,37.20
2018-08-27T10:15:29.533Z,34.10
2018-08-27T10:17:58.508Z,34.40
2018-08-27T10:20:27.537Z,36.90
2018-08-27T10:22:55.748Z,36.90
2018-08-27T10:25:24.019Z,38.30
2018-08-27T10:27:52.263Z,33.70
2018-08-27T10:30:20.478Z,38.50
2018-08-27T10:32:48.693Z,34.10
2018-08-27T10:35:17.679Z,33.80
2018-08-27T10:37:45.956Z,33.80
2018-08-27T10:40:14.231Z,35.00
2018-08-27T10:42:42.438Z,38.00
2018-08-27T10:45:10.718Z,36.50
2018-08-27T10:47:38.942Z,36.40
2018-08-27T10:50:07.261Z,34.90
2018-08-27T10:52:35.482Z,38.30
2018-08-27T10:55:03.733Z,34.20
2018-08-27T10:57:32.009Z,34.00
2018-08-27T11:00:00.236Z,37.30
2018-08-27T11:02:28.448Z,37.10
2018-08-27T11:04:56.719Z,37.60
2018-08-27T11:07:25.739Z,36.10
2018-08-27T11:09:53.988Z,36.20
2018-08-27T11:12:22.958Z,35.30
2018-08-27T11:14:51.193Z,35.30
2018-08-27T11:17:19.399Z,35.60
2018-08-27T11:19:47.691Z,36.40
2018-08-27T11:22:15.920Z,35.00
2018-08-27T11:24:44.191Z,36.60
2018-08-27T11:27:12.443Z,35.30
2018-08-27T11:29:41.431Z,37.70
2018-08-27T11:32:10.413Z,37.10
2018-08-27T11:34:39.452Z,32.80
2018-08-27T11:37:07.691Z,32.80
2018-08-27T11:39:36.717Z,32.80
2018-08-27T11:42:04.916Z,32.80
2018-08-27T11:44:33.136Z,33.10
2018-08-27T11:47:02.114Z,37.70
2018-08-27T11:49:30.348Z,36.70
2018-08-27T11:51:58.583Z,36.70
2018-08-27T11:54:27.571Z,34.10
2018-08-27T11:56:56.555Z,32.10
2018-08-27T11:59:24.818Z,32.10
2018-08-27T12:01:53.063Z,33.80
2018-08-27T12:04:21.333Z,35.40
2018-08-27T12:06:49.595Z,36.50
2018-08-27T12:09:18.611Z,36.40
2018-08-27T12:11:46.815Z,36.40
2018-08-27T12:14:15.109Z,37.30
2018-08-27T12:16:43.369Z,37.50
2018-08-27T12:19:12.320Z,37.40
2018-08-27T12:21:40.576Z,37.40
2018-08-27T12:24:09.606Z,37.30
2018-08-27T12:26:37.861Z,37.20
2018-08-27T12:29:06.859Z,38.80
2018-08-27T12:31:35.831Z,38.70
2018-08-27T12:34:04.099Z,38.20
2018-08-27T12:36:32.311Z,38.90
2018-08-27T12:39:00.535Z,39.00
2018-08-27T12:41:28.765Z,39.00
2018-08-27T12:43:57.021Z,39.00
2018-08-27T12:46:26.000Z,37.90
2018-08-27T12:48:54.990Z,39.60
2018-08-27T12:51:24.047Z,40.90
2018-08-27T12:53:52.221Z,40.40
2018-08-27T12:56:20.470Z,40.50
2018-08-27T12:58:48.814Z,40.70
2018-08-27T13:01:16.960Z,40.60
2018-08-27T13:03:46.046Z,40.90
2018-08-27T13:06:14.250Z,41.40
2018-08-27T13:08:42.482Z,42.00
2018-08-27T13:11:10.786Z,41.90
2018-08-27T13:13:39.020Z,41.90
2018-08-27T13:16:07.995Z,42.30
2018-08-27T13:18:37.024Z,42.20
2018-08-27T13:21:05.233Z,42.20
2018-08-27T13:23:33.507Z,42.40
2018-08-27T13:26:01.760Z,42.40
2018-08-27T13:28:30.031Z,42.80
2018-08-27T13:30:58.279Z,43.20
2018-08-27T13:33:27.302Z,43.80
2018-08-27T13:35:55.522Z,43.80
2018-08-27T13:38:23.775Z,43.60
2018-08-27T13:40:51.984Z,43.80
2018-08-27T13:43:20.256Z,43.80
2018-08-27T13:45:48.453Z,43.80
2018-08-27T13:48:17.490Z,45.20
2018-08-27T13:50:45.746Z,45.20
2018-08-27T13:53:13.947Z,45.90
2018-08-27T13:55:42.222Z,45.30
2018-08-27T13:58:10.424Z,44.80
2018-08-27T14:00:38.697Z,44.80
2018-08-27T14:03:06.940Z,44.50
2018-08-27T14:05:35.160Z,44.70
2018-08-27T14:08:03.419Z,44.80
2018-08-27T14:10:31.639Z,44.70
2018-08-27T14:13:00.613Z,45.20
2018-08-27T14:15:29.026Z,45.20
2018-08-27T14:17:57.079Z,45.10
2018-08-27T14:20:25.341Z,44.90
2018-08-27T14:22:53.554Z,44.70
2018-08-27T14:25:21.793Z,44.80
2018-08-27T14:27:49.994Z,45.10
2018-08-27T14:30:18.985Z,45.80
2018-08-27T14:32:48.037Z,45.50
2018-08-27T14:35:16.219Z,45.50
2018-08-27T14:37:44.437Z,45.20
2018-08-27T14:40:12.708Z,43.20
2018-08-27T14:42:41.824Z,43.10
2018-08-27T14:45:10.044Z,43.00
2018-08-27T14:47:38.155Z,44.10
2018-08-27T14:50:06.427Z,45.00
2018-08-27T14:52:35.444Z,45.00
2018-08-27T14:55:03.646Z,44.90
2018-08-27T14:57:31.903Z,43.40
2018-08-27T15:00:00.116Z,41.20
2018-08-27T15:02:28.314Z,41.10
2018-08-27T15:04:57.344Z,42.70
2018-08-27T15:07:25.566Z,42.80
2018-08-27T15:09:53.832Z,40.60
2018-08-27T15:12:22.063Z,42.90
2018-08-27T15:14:50.289Z,41.70
2018-08-27T15:17:18.505Z,42.90
2018-08-27T15:19:47.541Z,41.80
2018-08-27T15:22:15.750Z,41.80
2018-08-27T15:24:44.023Z,42.80
2018-08-27T15:27:12.216Z,41.80
2018-08-27T15:29:41.205Z,42.60
2018-08-27T15:32:10.222Z,43.20
2018-08-27T15:34:39.203Z,43.00
2018-08-27T15:37:08.284Z,42.30
2018-08-27T15:39:36.508Z,42.40
2018-08-27T15:42:04.718Z,42.90
2018-08-27T15:44:33.019Z,42.80
2018-08-27T15:47:01.247Z,42.60
2018-08-27T15:49:29.465Z,42.50
2018-08-27T15:51:57.677Z,42.90
2018-08-27T15:54:25.896Z,43.00
2018-08-27T15:56:54.151Z,42.90
2018-08-27T15:59:22.367Z,42.90
2018-08-27T16:01:50.620Z,42.70
2018-08-27T16:04:18.967Z,42.60
2018-08-27T16:06:47.093Z,43.00
2018-08-27T16:09:15.322Z,42.90
2018-08-27T16:11:43.563Z,42.80
2018-08-27T16:14:12.548Z,43.10
2018-08-27T16:16:40.742Z,43.10
2018-08-27T16:19:09.793Z,42.90
2018-08-27T16:21:38.034Z,42.90
2018-08-27T16:24:06.306Z,43.00
2018-08-27T16:26:34.510Z,43.10
2018-08-27T16:29:02.748Z,43.40
2018-08-27T16:31:31.776Z,43.40
2018-08-27T16:33:59.992Z,43.40
2018-08-27T16:36:28.250Z,43.50
2018-08-27T16:38:56.508Z,43.90
2018-08-27T16:41:24.761Z,44.40
2018-08-27T16:43:53.010Z,44.80
2018-08-27T16:46:21.238Z,44.60
2018-08-27T16:48:50.225Z,44.30
2018-08-27T16:51:18.480Z,44.30
2018-08-27T16:53:46.738Z,44.80
2018-08-27T16:56:14.954Z,44.90
2018-08-27T16:58:43.207Z,45.80
2018-08-27T17:01:11.445Z,44.80
2018-08-27T17:03:39.699Z,44.60
2018-08-27T17:06:07.953Z,44.70
2018-08-27T17:08:36.198Z,44.70
2018-08-27T17:11:05.194Z,44.70
2018-08-27T17:13:34.177Z,44.50
2018-08-27T17:16:02.469Z,44.40
2018-08-27T17:18:30.652Z,45.60
2018-08-27T17:20:58.889Z,45.10
2018-08-27T17:23:27.134Z,45.40
2018-08-27T17:25:55.413Z,45.70
2018-08-27T17:28:23.637Z,45.30
2018-08-27T17:30:51.957Z,45.40
2018-08-27T17:33:20.219Z,45.40
2018-08-27T17:35:48.454Z,45.00
2018-08-27T17:38:17.632Z,45.10
2018-08-27T17:40:45.875Z,45.10
2018-08-27T17:43:14.123Z,45.80
2018-08-27T17:45:43.164Z,45.90
2018-08-27T17:48:12.165Z,45.30
2018-08-27T17:50:40.375Z,45.30
2018-08-27T17:53:08.601Z,45.70
2018-08-27T17:55:36.876Z,45.90
2018-08-27T17:58:05.134Z,45.60
2018-08-27T18:00:34.164Z,46.40
2018-08-27T18:03:02.359Z,45.70
2018-08-27T18:05:31.309Z,45.70
2018-08-27T18:07:59.521Z,45.50
2018-08-27T18:10:27.812Z,46.80
2018-08-27T18:12:56.018Z,46.30
2018-08-27T18:15:25.054Z,45.60
2018-08-27T18:17:53.252Z,45.60
2018-08-27T18:20:21.497Z,45.70
2018-08-27T18:22:49.734Z,45.50
2018-08-27T18:25:18.817Z,45.80
2018-08-27T18:27:47.714Z,46.30
2018-08-27T18:30:15.950Z,46.30
2018-08-27T18:32:44.825Z,46.10
2018-08-27T18:35:13.034Z,46.20
2018-08-27T18:37:41.300Z,46.60
2018-08-27T18:40:09.643Z,46.60
2018-08-27T18:42:38.668Z,46.80
2018-08-27T18:45:06.996Z,46.80
2018-08-27T18:47:35.271Z,46.50
2018-08-27T18:50:03.583Z,46.80
2018-08-27T18:52:31.857Z,46.70
2018-08-27T18:55:00.068Z,47.00
2018-08-27T18:57:28.356Z,47.20
2018-08-27T18:59:56.582Z,47.40
2018-08-27T19:02:24.843Z,47.40
2018-08-27T19:04:53.831Z,48.40
2018-08-27T19:07:22.816Z,47.40
2018-08-27T19:09:51.885Z,47.40
2018-08-27T19:12:20.720Z,47.40
2018-08-27T19:14:48.967Z,48.80
2018-08-27T19:17:17.254Z,48.70
2018-08-27T19:19:45.512Z,48.70
2018-08-27T19:22:13.772Z,48.50
2018-08-27T19:24:42.042Z,49.30
2018-08-27T19:27:10.296Z,49.80
2018-08-27T19:29:38.536Z,49.30
2018-08-27T19:32:06.774Z,49.50
2018-08-27T19:34:35.134Z,48.40
2018-08-27T19:37:03.365Z,50.30
2018-08-27T19:39:31.633Z,50.40
2018-08-27T19:42:00.536Z,52.50
2018-08-27T19:44:28.804Z,52.80
2018-08-27T19:46:57.069Z,52.40
2018-08-27T19:49:25.351Z,56.10
2018-08-27T19:51:53.549Z,54.70
2018-08-27T19:54:22.599Z,56.90
2018-08-27T19:56:50.843Z,56.90
2018-08-27T19:59:19.109Z,54.70
2018-08-27T20:01:48.216Z,58.60
2018-08-27T20:04:16.463Z,58.50
2018-08-27T20:06:44.692Z,53.00
2018-08-27T20:09:12.902Z,51.60
2018-08-27T20:11:41.140Z,57.40
2018-08-27T20:14:09.409Z,54.60
2018-08-27T20:16:37.810Z,54.70
2018-08-27T20:19:05.953Z,55.60
2018-08-27T20:21:34.164Z,58.40
2018-08-27T20:24:02.389Z,57.60
2018-08-27T20:26:31.386Z,57.40
2018-08-27T20:29:00.365Z,60.10
2018-08-27T20:31:28.637Z,60.10
2018-08-27T20:33:56.858Z,58.00
2018-08-27T20:36:25.158Z,57.20
2018-08-27T20:38:53.479Z,60.50
2018-08-27T20:41:21.756Z,57.00
2018-08-27T20:43:49.982Z,56.20
2018-08-27T20:46:18.268Z,62.00
2018-08-27T20:48:46.468Z,63.10
2018-08-27T20:51:14.751Z,60.30
2018-08-27T20:53:42.960Z,56.10
2018-08-27T20:56:11.260Z,55.90
2018-08-27T20:58:39.468Z,60.10
2018-08-27T21:01:07.747Z,56.60
2018-08-27T21:03:35.942Z,59.20
2018-08-27T21:06:04.943Z,54.70
2018-08-27T21:08:33.167Z,54.70
2018-08-27T21:11:01.395Z,54.20
2018-08-27T21:13:29.639Z,53.30
2018-08-27T21:15:57.901Z,52.90
2018-08-27T21:18:26.155Z,54.60
2018-08-27T21:20:54.364Z,52.80
2018-08-27T21:23:22.581Z,52.50
2018-08-27T21:25:51.599Z,52.40
2018-08-27T21:28:19.812Z,52.40
2018-08-27T21:30:48.035Z,52.30
2018-08-27T21:33:16.262Z,55.60
2018-08-27T21:35:44.526Z,53.10
2018-08-27T21:38:12.771Z,53.30
2018-08-27T21:40:41.003Z,53.30
2018-08-27T21:43:09.257Z,53.10
2018-08-27T21:45:37.478Z,53.40
2018-08-27T21:48:06.500Z,53.50
2018-08-27T21:50:34.759Z,53.50
2018-08-27T21:53:03.011Z,62.50
2018-08-27T21:55:31.222Z,57.50
2018-08-27T21:57:59.480Z,57.80
2018-08-27T22:00:28.508Z,55.90
2018-08-27T22:02:56.748Z,55.90
2018-08-27T22:05:24.992Z,61.80
2018-08-27T22:07:53.220Z,58.80
2018-08-27T22:10:21.486Z,66.30
2018-08-27T22:12:50.492Z,67.20
2018-08-27T22:15:19.513Z,60.60
2018-08-27T22:17:47.726Z,60.70
2018-08-27T22:20:15.972Z,57.70
2018-08-27T22:22:44.193Z,58.70
2018-08-27T22:25:13.172Z,54.80
2018-08-27T22:27:41.438Z,54.70
2018-08-27T22:30:09.637Z,54.10
2018-08-27T22:32:38.628Z,54.60
2018-08-27T22:35:06.919Z,55.10
2018-08-27T22:37:35.136Z,54.00
2018-08-27T22:40:03.336Z,53.80
2018-08-27T22:42:31.555Z,54.20
2018-08-27T22:44:59.813Z,53.60
2018-08-27T22:47:28.059Z,53.40
2018-08-27T22:49:56.305Z,53.40
2018-08-27T22:52:24.519Z,55.60
2018-08-27T22:54:52.771Z,55.00
2018-08-27T22:57:20.989Z,61.60
2018-08-27T22:59:49.198Z,70.80
2018-08-27T23:02:17.471Z,65.80
2018-08-27T23:05:00.392Z,60.10
2018-08-27T23:07:28.659Z,70.20
2018-08-27T23:09:57.658Z,61.20
2018-08-27T23:12:26.639Z,69.70
2018-08-27T23:14:54.842Z,69.90
2018-08-27T23:17:23.060Z,61.70
2018-08-27T23:19:51.311Z,73.30
2018-08-27T23:22:19.801Z,58.80
2018-08-27T23:24:47.981Z,69.80
2018-08-27T23:27:16.207Z,70.70
2018-08-27T23:29:45.255Z,61.10
2018-08-27T23:32:13.511Z,61.10
2018-08-27T23:34:41.753Z,71.20
2018-08-27T23:37:10.781Z,59.70
2018-08-27T23:39:39.030Z,60.10
2018-08-27T23:42:07.193Z,58.70
2018-08-27T23:44:36.216Z,58.30
2018-08-27T23:47:04.483Z,58.30
2018-08-27T23:49:33.426Z,58.60
2018-08-27T23:52:01.694Z,58.50
2018-08-27T23:54:29.938Z,57.30
2018-08-27T23:56:58.218Z,58.20
2018-08-27T23:59:26.463Z,57.50
